sensor_id;sensor_type;location;lat;lon;timestamp;temperature;humidity
75838;SHT30;64480;52.040;113.502;2023-02-11T00:01:55;-17.41;67.17
75838;SHT30;64480;52.040;113.502;2023-02-11T00:05:06;-17.38;67.21
75838;SHT30;64480;52.040;113.502;2023-02-11T00:08:11;-17.31;67.24
75838;SHT30;64480;52.040;113.502;2023-02-11T00:11:21;-17.34;66.99
75838;SHT30;64480;52.040;113.502;2023-02-11T00:14:39;-17.24;67.11
75838;SHT30;64480;52.040;113.502;2023-02-11T00:17:51;-17.11;66.62
75838;SHT30;64480;52.040;113.502;2023-02-11T00:20:55;-17.06;66.37
75838;SHT30;64480;52.040;113.502;2023-02-11T00:24:07;-16.75;66.48
75838;SHT30;64480;52.040;113.502;2023-02-11T00:27:24;-16.60;65.05
75838;SHT30;64480;52.040;113.502;2023-02-11T00:30:34;-16.44;64.87
75838;SHT30;64480;52.040;113.502;2023-02-11T00:33:50;-16.48;63.90
75838;SHT30;64480;52.040;113.502;2023-02-11T00:37:06;-16.86;64.16
75838;SHT30;64480;52.040;113.502;2023-02-11T00:40:16;-16.86;65.53
75838;SHT30;64480;52.040;113.502;2023-02-11T00:43:31;-16.89;65.43
75838;SHT30;64480;52.040;113.502;2023-02-11T00:46:37;-16.89;65.58
75838;SHT30;64480;52.040;113.502;2023-02-11T00:49:54;-16.86;65.11
75838;SHT30;64480;52.040;113.502;2023-02-11T00:53:17;-16.86;65.10
75838;SHT30;64480;52.040;113.502;2023-02-11T00:56:35;-16.73;65.42
75838;SHT30;64480;52.040;113.502;2023-02-11T00:59:48;-16.63;65.34
75838;SHT30;64480;52.040;113.502;2023-02-11T01:02:57;-16.56;64.74
75838;SHT30;64480;52.040;113.502;2023-02-11T01:06:16;-16.38;64.62
75838;SHT30;64480;52.040;113.502;2023-02-11T01:09:39;-16.34;63.65
75838;SHT30;64480;52.040;113.502;2023-02-11T01:13:02;-16.35;63.80
75838;SHT30;64480;52.040;113.502;2023-02-11T01:16:21;-16.31;63.57
75838;SHT30;64480;52.040;113.502;2023-02-11T01:19:27;-16.34;63.76
75838;SHT30;64480;52.040;113.502;2023-02-11T01:22:34;-16.31;64.17
75838;SHT30;64480;52.040;113.502;2023-02-11T01:25:58;-16.34;63.94
75838;SHT30;64480;52.040;113.502;2023-02-11T01:29:20;-16.28;64.18
75838;SHT30;64480;52.040;113.502;2023-02-11T01:32:29;-16.24;63.70
75838;SHT30;64480;52.040;113.502;2023-02-11T01:35:49;-16.13;63.92
75838;SHT30;64480;52.040;113.502;2023-02-11T01:39:06;-16.09;63.77
75838;SHT30;64480;52.040;113.502;2023-02-11T01:42:24;-15.92;63.78
75838;SHT30;64480;52.040;113.502;2023-02-11T01:45:56;-15.90;63.03
75838;SHT30;64480;52.040;113.502;2023-02-11T01:53:19;-15.81;63.61
75838;SHT30;64480;52.040;113.502;2023-02-11T01:57:16;-15.81;63.75
75838;SHT30;64480;52.040;113.502;2023-02-11T02:01:00;-15.69;64.03
75838;SHT30;64480;52.040;113.502;2023-02-11T02:04:19;-15.54;63.95
75838;SHT30;64480;52.040;113.502;2023-02-11T02:11:21;-15.40;62.53
75838;SHT30;64480;52.040;113.502;2023-02-11T02:14:37;-15.30;62.70
75838;SHT30;64480;52.040;113.502;2023-02-11T02:18:03;-15.20;62.35
75838;SHT30;64480;52.040;113.502;2023-02-11T02:22:04;-15.09;62.05
75838;SHT30;64480;52.040;113.502;2023-02-11T02:25:54;-15.07;61.92
75838;SHT30;64480;52.040;113.502;2023-02-11T02:33:48;-14.89;61.88
75838;SHT30;64480;52.040;113.502;2023-02-11T02:37:33;-14.74;62.28
75838;SHT30;64480;52.040;113.502;2023-02-11T02:41:10;-14.50;61.91
75838;SHT30;64480;52.040;113.502;2023-02-11T02:53:06;-13.88;60.53
75838;SHT30;64480;52.040;113.502;2023-02-11T03:00:33;-13.61;59.96
75838;SHT30;64480;52.040;113.502;2023-02-11T03:04:41;-13.46;60.06
75838;SHT30;64480;52.040;113.502;2023-02-11T03:16:09;-13.39;59.55
75838;SHT30;64480;52.040;113.502;2023-02-11T03:19:45;-13.29;59.76
75838;SHT30;64480;52.040;113.502;2023-02-11T03:23:42;-13.10;59.73
75838;SHT30;64480;52.040;113.502;2023-02-11T03:43:08;-11.98;59.03
75838;SHT30;64480;52.040;113.502;2023-02-11T03:46:43;-11.72;58.93
75838;SHT30;64480;52.040;113.502;2023-02-11T03:51:06;-11.52;58.62
75838;SHT30;64480;52.040;113.502;2023-02-11T04:02:34;-11.04;57.45
75838;SHT30;64480;52.040;113.502;2023-02-11T04:36:56;-9.44;56.00
75838;SHT30;64480;52.040;113.502;2023-02-11T04:40:03;-9.31;55.16
75838;SHT30;64480;52.040;113.502;2023-02-11T04:43:42;-9.17;54.47
75838;SHT30;64480;52.040;113.502;2023-02-11T04:46:47;-9.05;54.19
75838;SHT30;64480;52.040;113.502;2023-02-11T04:50:04;-8.99;54.13
75838;SHT30;64480;52.040;113.502;2023-02-11T04:53:10;-8.88;54.13
75838;SHT30;64480;52.040;113.502;2023-02-11T04:56:14;-8.89;54.21
75838;SHT30;64480;52.040;113.502;2023-02-11T04:59:22;-8.88;53.35
75838;SHT30;64480;52.040;113.502;2023-02-11T05:02:26;-8.68;53.55
75838;SHT30;64480;52.040;113.502;2023-02-11T05:05:30;-8.62;52.81
75838;SHT30;64480;52.040;113.502;2023-02-11T05:08:47;-8.57;52.91
75838;SHT30;64480;52.040;113.502;2023-02-11T05:11:55;-8.55;52.49
75838;SHT30;64480;52.040;113.502;2023-02-11T05:15:12;-8.51;52.75
75838;SHT30;64480;52.040;113.502;2023-02-11T05:18:24;-8.20;53.46
75838;SHT30;64480;52.040;113.502;2023-02-11T05:22:08;-7.99;51.74
75838;SHT30;64480;52.040;113.502;2023-02-11T05:25:26;-7.96;51.95
75838;SHT30;64480;52.040;113.502;2023-02-11T05:28:33;-7.98;51.08
75838;SHT30;64480;52.040;113.502;2023-02-11T05:31:50;-7.88;51.78
75838;SHT30;64480;52.040;113.502;2023-02-11T05:35:09;-7.73;51.40
75838;SHT30;64480;52.040;113.502;2023-02-11T05:38:26;-7.55;51.35
75838;SHT30;64480;52.040;113.502;2023-02-11T05:41:50;-7.36;51.55
75838;SHT30;64480;52.040;113.502;2023-02-11T05:45:09;-7.20;50.56
75838;SHT30;64480;52.040;113.502;2023-02-11T05:48:26;-7.11;49.94
75838;SHT30;64480;52.040;113.502;2023-02-11T05:51:50;-7.09;50.71
75838;SHT30;64480;52.040;113.502;2023-02-11T05:55:16;-7.03;50.58
75838;SHT30;64480;52.040;113.502;2023-02-11T05:58:33;-6.92;50.03
75838;SHT30;64480;52.040;113.502;2023-02-11T06:01:54;-6.84;50.62
75838;SHT30;64480;52.040;113.502;2023-02-11T06:05:13;-6.75;49.52
75838;SHT30;64480;52.040;113.502;2023-02-11T06:08:35;-6.65;49.95
75838;SHT30;64480;52.040;113.502;2023-02-11T06:11:56;-6.56;50.08
75838;SHT30;64480;52.040;113.502;2023-02-11T06:15:09;-6.39;49.35
75838;SHT30;64480;52.040;113.502;2023-02-11T06:18:15;-6.26;48.98
75838;SHT30;64480;52.040;113.502;2023-02-11T06:21:37;-6.18;48.68
75838;SHT30;64480;52.040;113.502;2023-02-11T06:25:18;-6.09;48.80
75838;SHT30;64480;52.040;113.502;2023-02-11T06:42:57;-5.91;47.00
75838;SHT30;64480;52.040;113.502;2023-02-11T06:46:08;-5.82;46.83
75838;SHT30;64480;52.040;113.502;2023-02-11T06:49:40;-5.75;46.27
75838;SHT30;64480;52.040;113.502;2023-02-11T06:53:06;-5.73;46.73
75838;SHT30;64480;52.040;113.502;2023-02-11T06:56:24;-5.71;46.29
75838;SHT30;64480;52.040;113.502;2023-02-11T06:59:50;-5.66;45.16
75838;SHT30;64480;52.040;113.502;2023-02-11T07:03:08;-5.59;45.20
75838;SHT30;64480;52.040;113.502;2023-02-11T07:25:01;-5.49;43.80
75838;SHT30;64480;52.040;113.502;2023-02-11T07:28:38;-5.62;44.12
75838;SHT30;64480;52.040;113.502;2023-02-11T07:31:56;-5.80;44.20
75838;SHT30;64480;52.040;113.502;2023-02-11T07:35:16;-5.84;43.85
75838;SHT30;64480;52.040;113.502;2023-02-11T07:38:35;-5.78;44.66
75838;SHT30;64480;52.040;113.502;2023-02-11T07:42:06;-5.80;43.66
75838;SHT30;64480;52.040;113.502;2023-02-11T07:48:59;-5.59;43.99
75838;SHT30;64480;52.040;113.502;2023-02-11T07:52:17;-5.32;42.39
75838;SHT30;64480;52.040;113.502;2023-02-11T07:55:35;-5.11;42.31
75838;SHT30;64480;52.040;113.502;2023-02-11T07:58:55;-4.92;41.09
75838;SHT30;64480;52.040;113.502;2023-02-11T08:02:18;-5.12;41.24
75838;SHT30;64480;52.040;113.502;2023-02-11T08:17:21;-5.73;42.79
75838;SHT30;64480;52.040;113.502;2023-02-11T08:20:47;-5.74;44.08
75838;SHT30;64480;52.040;113.502;2023-02-11T08:24:00;-5.80;43.53
75838;SHT30;64480;52.040;113.502;2023-02-11T08:27:20;-5.84;44.46
75838;SHT30;64480;52.040;113.502;2023-02-11T08:34:00;-6.01;44.26
75838;SHT30;64480;52.040;113.502;2023-02-11T08:40:36;-6.40;45.37
75838;SHT30;64480;52.040;113.502;2023-02-11T08:43:49;-6.56;45.73
75838;SHT30;64480;52.040;113.502;2023-02-11T08:50:38;-6.82;46.59
75838;SHT30;64480;52.040;113.502;2023-02-11T08:53:50;-6.89;47.02
75838;SHT30;64480;52.040;113.502;2023-02-11T08:57:07;-7.01;47.63
75838;SHT30;64480;52.040;113.502;2023-02-11T09:00:24;-7.13;48.13
75838;SHT30;64480;52.040;113.502;2023-02-11T09:03:35;-7.22;48.81
75838;SHT30;64480;52.040;113.502;2023-02-11T09:10:25;-7.40;49.51
75838;SHT30;64480;52.040;113.502;2023-02-11T09:13:55;-7.50;49.86
75838;SHT30;64480;52.040;113.502;2023-02-11T09:17:12;-7.55;50.05
75838;SHT30;64480;52.040;113.502;2023-02-11T09:20:30;-7.61;50.15
75838;SHT30;64480;52.040;113.502;2023-02-11T09:23:46;-7.68;50.33
75838;SHT30;64480;52.040;113.502;2023-02-11T09:27:21;-7.71;50.14
75838;SHT30;64480;52.040;113.502;2023-02-11T09:30:38;-7.75;50.18
75838;SHT30;64480;52.040;113.502;2023-02-11T09:33:57;-7.79;50.01
75838;SHT30;64480;52.040;113.502;2023-02-11T09:37:07;-7.82;49.89
75838;SHT30;64480;52.040;113.502;2023-02-11T09:40:18;-7.88;49.83
75838;SHT30;64480;52.040;113.502;2023-02-11T09:43:43;-7.92;50.20
75838;SHT30;64480;52.040;113.502;2023-02-11T09:47:06;-7.95;50.28
75838;SHT30;64480;52.040;113.502;2023-02-11T09:53:53;-7.92;50.24
75838;SHT30;64480;52.040;113.502;2023-02-11T09:57:08;-7.96;50.49
75838;SHT30;64480;52.040;113.502;2023-02-11T10:00:58;-7.98;50.33
75838;SHT30;64480;52.040;113.502;2023-02-11T10:40:19;-8.33;51.25
75838;SHT30;64480;52.040;113.502;2023-02-11T10:43:58;-8.38;51.66
75838;SHT30;64480;52.040;113.502;2023-02-11T10:47:10;-8.38;51.57
75838;SHT30;64480;52.040;113.502;2023-02-11T10:50:31;-8.41;51.52
75838;SHT30;64480;52.040;113.502;2023-02-11T10:53:40;-8.40;51.69
75838;SHT30;64480;52.040;113.502;2023-02-11T10:57:16;-8.41;52.04
75838;SHT30;64480;52.040;113.502;2023-02-11T11:00:37;-8.41;52.01
75838;SHT30;64480;52.040;113.502;2023-02-11T11:04:36;-8.45;52.39
75838;SHT30;64480;52.040;113.502;2023-02-11T11:08:07;-8.48;52.71
75838;SHT30;64480;52.040;113.502;2023-02-11T11:11:16;-8.47;52.93
75838;SHT30;64480;52.040;113.502;2023-02-11T11:14:25;-8.47;52.96
75838;SHT30;64480;52.040;113.502;2023-02-11T11:17:41;-8.50;52.41
75838;SHT30;64480;52.040;113.502;2023-02-11T11:21:05;-8.48;52.58
75838;SHT30;64480;52.040;113.502;2023-02-11T11:24:43;-8.51;52.47
75838;SHT30;64480;52.040;113.502;2023-02-11T11:35:32;-8.64;52.66
75838;SHT30;64480;52.040;113.502;2023-02-11T11:38:57;-8.69;52.53
75838;SHT30;64480;52.040;113.502;2023-02-11T11:42:26;-8.73;52.58
75838;SHT30;64480;52.040;113.502;2023-02-11T11:46:27;-8.76;52.63
75838;SHT30;64480;52.040;113.502;2023-02-11T11:49:50;-8.73;52.60
75838;SHT30;64480;52.040;113.502;2023-02-11T11:54:11;-8.71;52.55
75838;SHT30;64480;52.040;113.502;2023-02-11T11:57:26;-8.71;52.39
75838;SHT30;64480;52.040;113.502;2023-02-11T12:16:14;-9.10;53.00
75838;SHT30;64480;52.040;113.502;2023-02-11T12:53:29;-9.76;53.47
75838;SHT30;64480;52.040;113.502;2023-02-11T12:57:14;-9.82;53.55
75838;SHT30;64480;52.040;113.502;2023-02-11T13:01:18;-9.86;53.82
75838;SHT30;64480;52.040;113.502;2023-02-11T13:09:03;-9.95;53.83
75838;SHT30;64480;52.040;113.502;2023-02-11T13:12:28;-9.95;52.90
75838;SHT30;64480;52.040;113.502;2023-02-11T13:16:18;-9.95;52.80
75838;SHT30;64480;52.040;113.502;2023-02-11T13:19:52;-9.96;52.56
75838;SHT30;64480;52.040;113.502;2023-02-11T13:31:09;-10.07;52.91
75838;SHT30;64480;52.040;113.502;2023-02-11T13:34:53;-10.10;52.73
75838;SHT30;64480;52.040;113.502;2023-02-11T13:38:20;-10.17;53.04
75838;SHT30;64480;52.040;113.502;2023-02-11T13:41:40;-10.18;52.95
75838;SHT30;64480;52.040;113.502;2023-02-11T13:45:43;-10.17;52.60
75838;SHT30;64480;52.040;113.502;2023-02-11T13:49:01;-10.23;52.51
75838;SHT30;64480;52.040;113.502;2023-02-11T13:52:36;-10.28;52.63
75838;SHT30;64480;52.040;113.502;2023-02-11T13:56:09;-10.33;52.79
75838;SHT30;64480;52.040;113.502;2023-02-11T14:03:23;-10.40;52.29
75838;SHT30;64480;52.040;113.502;2023-02-11T14:07:31;-10.42;51.90
75838;SHT30;64480;52.040;113.502;2023-02-11T14:18:58;-10.48;51.63
75838;SHT30;64480;52.040;113.502;2023-02-11T14:22:43;-10.49;51.74
75838;SHT30;64480;52.040;113.502;2023-02-11T14:29:40;-10.53;52.11
75838;SHT30;64480;52.040;113.502;2023-02-11T14:36:59;-10.79;53.01
75838;SHT30;64480;52.040;113.502;2023-02-11T14:43:52;-11.14;54.37
75838;SHT30;64480;52.040;113.502;2023-02-11T14:47:23;-11.28;55.14
75838;SHT30;64480;52.040;113.502;2023-02-11T14:54:04;-11.65;56.21
75838;SHT30;64480;52.040;113.502;2023-02-11T14:57:18;-11.69;56.69
75838;SHT30;64480;52.040;113.502;2023-02-11T15:00:25;-11.77;56.66
75838;SHT30;64480;52.040;113.502;2023-02-11T15:03:47;-11.91;56.82
75838;SHT30;64480;52.040;113.502;2023-02-11T15:07:07;-11.97;57.36
75838;SHT30;64480;52.040;113.502;2023-02-11T15:14:32;-12.10;57.47
75838;SHT30;64480;52.040;113.502;2023-02-11T15:18:30;-12.08;57.56
75838;SHT30;64480;52.040;113.502;2023-02-11T15:21:53;-12.11;57.67
75838;SHT30;64480;52.040;113.502;2023-02-11T15:25:15;-11.95;57.34
75838;SHT30;64480;52.040;113.502;2023-02-11T15:28:35;-11.72;56.24
75838;SHT30;64480;52.040;113.502;2023-02-11T15:31:42;-11.51;55.31
75838;SHT30;64480;52.040;113.502;2023-02-11T15:35:03;-11.41;54.77
75838;SHT30;64480;52.040;113.502;2023-02-11T15:38:31;-11.30;54.20
75838;SHT30;64480;52.040;113.502;2023-02-11T15:41:48;-11.18;53.58
75838;SHT30;64480;52.040;113.502;2023-02-11T15:48:30;-11.10;53.30
75838;SHT30;64480;52.040;113.502;2023-02-11T15:51:45;-11.10;53.19
75838;SHT30;64480;52.040;113.502;2023-02-11T15:55:05;-11.11;53.14
75838;SHT30;64480;52.040;113.502;2023-02-11T15:58:26;-11.08;52.98
75838;SHT30;64480;52.040;113.502;2023-02-11T16:01:44;-11.07;52.78
75838;SHT30;64480;52.040;113.502;2023-02-11T16:05:07;-11.10;52.73
75838;SHT30;64480;52.040;113.502;2023-02-11T16:08:27;-11.06;52.62
75838;SHT30;64480;52.040;113.502;2023-02-11T16:12:01;-11.08;52.78
75838;SHT30;64480;52.040;113.502;2023-02-11T16:15:49;-11.14;52.71
75838;SHT30;64480;52.040;113.502;2023-02-11T16:18:59;-11.13;52.64
75838;SHT30;64480;52.040;113.502;2023-02-11T16:22:29;-11.17;52.34
75838;SHT30;64480;52.040;113.502;2023-02-11T16:26:40;-11.21;52.43
75838;SHT30;64480;52.040;113.502;2023-02-11T16:30:05;-11.21;52.51
75838;SHT30;64480;52.040;113.502;2023-02-11T16:33:25;-11.25;52.56
75838;SHT30;64480;52.040;113.502;2023-02-11T16:36:36;-11.28;52.66
75838;SHT30;64480;52.040;113.502;2023-02-11T16:39:44;-11.32;52.59
75838;SHT30;64480;52.040;113.502;2023-02-11T16:42:51;-11.35;52.72
75838;SHT30;64480;52.040;113.502;2023-02-11T16:46:13;-11.36;52.76
75838;SHT30;64480;52.040;113.502;2023-02-11T16:49:24;-11.38;52.70
75838;SHT30;64480;52.040;113.502;2023-02-11T16:52:39;-11.44;52.76
75838;SHT30;64480;52.040;113.502;2023-02-11T16:55:51;-11.44;52.50
75838;SHT30;64480;52.040;113.502;2023-02-11T16:58:56;-11.46;52.62
75838;SHT30;64480;52.040;113.502;2023-02-11T17:02:02;-11.48;52.65
75838;SHT30;64480;52.040;113.502;2023-02-11T17:05:15;-11.52;52.61
75838;SHT30;64480;52.040;113.502;2023-02-11T17:08:22;-11.53;52.71
75838;SHT30;64480;52.040;113.502;2023-02-11T17:11:27;-11.55;52.79
75838;SHT30;64480;52.040;113.502;2023-02-11T17:14:36;-11.61;52.58
75838;SHT30;64480;52.040;113.502;2023-02-11T17:17:41;-11.66;52.52
75838;SHT30;64480;52.040;113.502;2023-02-11T17:20:46;-11.66;53.07
75838;SHT30;64480;52.040;113.502;2023-02-11T17:23:51;-11.73;53.53
75838;SHT30;64480;52.040;113.502;2023-02-11T17:26:57;-11.76;53.78
75838;SHT30;64480;52.040;113.502;2023-02-11T17:30:06;-11.98;53.79
75838;SHT30;64480;52.040;113.502;2023-02-11T17:33:13;-12.27;54.33
75838;SHT30;64480;52.040;113.502;2023-02-11T17:36:22;-12.38;55.35
75838;SHT30;64480;52.040;113.502;2023-02-11T17:39:29;-12.50;55.72
75838;SHT30;64480;52.040;113.502;2023-02-11T17:42:33;-12.57;55.96
75838;SHT30;64480;52.040;113.502;2023-02-11T17:45:40;-12.70;56.42
75838;SHT30;64480;52.040;113.502;2023-02-11T17:48:44;-12.69;57.06
75838;SHT30;64480;52.040;113.502;2023-02-11T17:51:50;-12.84;57.12
75838;SHT30;64480;52.040;113.502;2023-02-11T17:54:56;-12.95;57.23
75838;SHT30;64480;52.040;113.502;2023-02-11T17:58:09;-13.02;57.90
75838;SHT30;64480;52.040;113.502;2023-02-11T18:01:18;-13.07;58.50
75838;SHT30;64480;52.040;113.502;2023-02-11T18:04:25;-13.19;58.52
75838;SHT30;64480;52.040;113.502;2023-02-11T18:07:31;-13.23;58.88
75838;SHT30;64480;52.040;113.502;2023-02-11T18:10:40;-13.32;58.84
75838;SHT30;64480;52.040;113.502;2023-02-11T18:13:44;-13.35;59.25
75838;SHT30;64480;52.040;113.502;2023-02-11T18:16:53;-13.49;58.85
75838;SHT30;64480;52.040;113.502;2023-02-11T18:20:01;-13.53;59.49
75838;SHT30;64480;52.040;113.502;2023-02-11T18:23:10;-13.59;59.50
75838;SHT30;64480;52.040;113.502;2023-02-11T18:26:14;-13.56;59.75
75838;SHT30;64480;52.040;113.502;2023-02-11T18:29:18;-13.70;59.35
75838;SHT30;64480;52.040;113.502;2023-02-11T18:32:26;-13.81;59.54
75838;SHT30;64480;52.040;113.502;2023-02-11T18:35:41;-13.77;60.33
75838;SHT30;64480;52.040;113.502;2023-02-11T18:38:53;-13.81;59.77
75838;SHT30;64480;52.040;113.502;2023-02-11T18:41:59;-13.85;60.00
75838;SHT30;64480;52.040;113.502;2023-02-11T18:45:07;-13.71;59.63
75838;SHT30;64480;52.040;113.502;2023-02-11T18:48:15;-13.51;59.25
75838;SHT30;64480;52.040;113.502;2023-02-11T18:51:19;-13.25;58.34
75838;SHT30;64480;52.040;113.502;2023-02-11T18:54:26;-13.04;57.46
75838;SHT30;64480;52.040;113.502;2023-02-11T18:57:32;-12.85;56.57
75838;SHT30;64480;52.040;113.502;2023-02-11T19:00:39;-12.74;55.95
75838;SHT30;64480;52.040;113.502;2023-02-11T19:03:45;-12.62;55.49
75838;SHT30;64480;52.040;113.502;2023-02-11T19:06:52;-12.59;55.05
75838;SHT30;64480;52.040;113.502;2023-02-11T19:09:57;-12.59;55.02
75838;SHT30;64480;52.040;113.502;2023-02-11T19:13:02;-12.52;54.92
75838;SHT30;64480;52.040;113.502;2023-02-11T19:16:08;-12.50;54.71
75838;SHT30;64480;52.040;113.502;2023-02-11T19:19:21;-12.48;54.58
75838;SHT30;64480;52.040;113.502;2023-02-11T19:22:25;-12.48;54.56
75838;SHT30;64480;52.040;113.502;2023-02-11T19:25:29;-12.42;54.50
75838;SHT30;64480;52.040;113.502;2023-02-11T19:28:33;-12.46;54.57
75838;SHT30;64480;52.040;113.502;2023-02-11T19:31:40;-12.50;54.54
75838;SHT30;64480;52.040;113.502;2023-02-11T19:34:46;-12.50;54.57
75838;SHT30;64480;52.040;113.502;2023-02-11T19:37:52;-12.55;54.63
75838;SHT30;64480;52.040;113.502;2023-02-11T19:40:57;-12.55;54.69
75838;SHT30;64480;52.040;113.502;2023-02-11T19:44:04;-12.55;54.69
75838;SHT30;64480;52.040;113.502;2023-02-11T19:47:09;-12.57;54.88
75838;SHT30;64480;52.040;113.502;2023-02-11T19:50:14;-12.60;54.91
75838;SHT30;64480;52.040;113.502;2023-02-11T19:53:18;-12.56;54.81
75838;SHT30;64480;52.040;113.502;2023-02-11T19:56:23;-12.60;54.83
75838;SHT30;64480;52.040;113.502;2023-02-11T19:59:29;-12.60;54.69
75838;SHT30;64480;52.040;113.502;2023-02-11T20:02:33;-12.63;54.72
75838;SHT30;64480;52.040;113.502;2023-02-11T20:05:43;-12.63;54.63
75838;SHT30;64480;52.040;113.502;2023-02-11T20:09:12;-12.65;54.60
75838;SHT30;64480;52.040;113.502;2023-02-11T20:12:16;-12.69;54.59
75838;SHT30;64480;52.040;113.502;2023-02-11T20:15:22;-12.76;54.61
75838;SHT30;64480;52.040;113.502;2023-02-11T20:18:27;-12.76;54.56
75838;SHT30;64480;52.040;113.502;2023-02-11T20:21:32;-12.79;54.46
75838;SHT30;64480;52.040;113.502;2023-02-11T20:24:39;-12.79;54.44
75838;SHT30;64480;52.040;113.502;2023-02-11T20:27:44;-12.77;54.43
75838;SHT30;64480;52.040;113.502;2023-02-11T20:30:58;-12.79;54.51
75838;SHT30;64480;52.040;113.502;2023-02-11T20:34:03;-12.81;54.68
75838;SHT30;64480;52.040;113.502;2023-02-11T20:37:08;-12.85;54.72
75838;SHT30;64480;52.040;113.502;2023-02-11T20:40:14;-12.87;54.77
75838;SHT30;64480;52.040;113.502;2023-02-11T20:43:19;-12.91;55.00
75838;SHT30;64480;52.040;113.502;2023-02-11T20:46:25;-12.88;54.91
75838;SHT30;64480;52.040;113.502;2023-02-11T20:49:30;-12.88;54.85
75838;SHT30;64480;52.040;113.502;2023-02-11T20:52:34;-13.01;55.06
75838;SHT30;64480;52.040;113.502;2023-02-11T20:55:39;-13.26;55.06
75838;SHT30;64480;52.040;113.502;2023-02-11T20:58:46;-13.51;55.91
75838;SHT30;64480;52.040;113.502;2023-02-11T21:01:52;-13.64;56.62
75838;SHT30;64480;52.040;113.502;2023-02-11T21:04:57;-13.73;56.75
75838;SHT30;64480;52.040;113.502;2023-02-11T21:08:03;-13.94;57.67
75838;SHT30;64480;52.040;113.502;2023-02-11T21:11:08;-14.06;58.21
75838;SHT30;64480;52.040;113.502;2023-02-11T21:14:16;-14.08;58.33
75838;SHT30;64480;52.040;113.502;2023-02-11T21:17:24;-14.05;58.67
75838;SHT30;64480;52.040;113.502;2023-02-11T21:20:33;-14.09;58.85
75838;SHT30;64480;52.040;113.502;2023-02-11T21:23:37;-14.21;59.00
75838;SHT30;64480;52.040;113.502;2023-02-11T21:26:53;-14.25;59.05
75838;SHT30;64480;52.040;113.502;2023-02-11T21:30:00;-14.29;59.39
75838;SHT30;64480;52.040;113.502;2023-02-11T21:33:11;-14.33;59.82
75838;SHT30;64480;52.040;113.502;2023-02-11T21:36:22;-14.39;59.87
75838;SHT30;64480;52.040;113.502;2023-02-11T21:39:26;-14.44;59.68
75838;SHT30;64480;52.040;113.502;2023-02-11T21:42:31;-14.63;59.63
75838;SHT30;64480;52.040;113.502;2023-02-11T21:45:45;-14.65;60.58
75838;SHT30;64480;52.040;113.502;2023-02-11T21:48:50;-14.68;61.04
75838;SHT30;64480;52.040;113.502;2023-02-11T21:51:55;-14.71;61.13
75838;SHT30;64480;52.040;113.502;2023-02-11T21:54:59;-14.64;61.17
75838;SHT30;64480;52.040;113.502;2023-02-11T21:58:05;-14.56;60.83
75838;SHT30;64480;52.040;113.502;2023-02-11T22:01:23;-14.60;60.64
75838;SHT30;64480;52.040;113.502;2023-02-11T22:04:36;-14.46;60.75
75838;SHT30;64480;52.040;113.502;2023-02-11T22:07:40;-14.36;60.79
75838;SHT30;64480;52.040;113.502;2023-02-11T22:10:44;-14.33;60.01
75838;SHT30;64480;52.040;113.502;2023-02-11T22:13:53;-14.32;59.95
75838;SHT30;64480;52.040;113.502;2023-02-11T22:17:06;-14.26;59.82
75838;SHT30;64480;52.040;113.502;2023-02-11T22:20:12;-14.32;60.18
75838;SHT30;64480;52.040;113.502;2023-02-11T22:23:19;-14.53;59.40
75838;SHT30;64480;52.040;113.502;2023-02-11T22:26:35;-14.60;59.88
75838;SHT30;64480;52.040;113.502;2023-02-11T22:29:43;-14.74;60.15
75838;SHT30;64480;52.040;113.502;2023-02-11T22:32:48;-14.79;61.10
75838;SHT30;64480;52.040;113.502;2023-02-11T22:35:59;-14.79;60.80
75838;SHT30;64480;52.040;113.502;2023-02-11T22:39:09;-14.85;60.97
75838;SHT30;64480;52.040;113.502;2023-02-11T22:42:16;-14.84;61.11
75838;SHT30;64480;52.040;113.502;2023-02-11T22:45:25;-14.89;61.21
75838;SHT30;64480;52.040;113.502;2023-02-11T22:48:29;-14.85;61.61
75838;SHT30;64480;52.040;113.502;2023-02-11T22:51:34;-14.85;61.33
75838;SHT30;64480;52.040;113.502;2023-02-11T22:54:39;-14.85;61.51
75838;SHT30;64480;52.040;113.502;2023-02-11T22:57:45;-14.93;61.25
75838;SHT30;64480;52.040;113.502;2023-02-11T23:00:52;-14.99;61.60
75838;SHT30;64480;52.040;113.502;2023-02-11T23:03:59;-14.96;61.95
75838;SHT30;64480;52.040;113.502;2023-02-11T23:07:04;-14.92;61.98
75838;SHT30;64480;52.040;113.502;2023-02-11T23:10:08;-14.92;61.73
75838;SHT30;64480;52.040;113.502;2023-02-11T23:13:15;-14.91;61.68
75838;SHT30;64480;52.040;113.502;2023-02-11T23:16:25;-14.91;61.04
75838;SHT30;64480;52.040;113.502;2023-02-11T23:19:34;-14.98;61.58
75838;SHT30;64480;52.040;113.502;2023-02-11T23:22:38;-14.92;61.74
75838;SHT30;64480;52.040;113.502;2023-02-11T23:25:44;-14.85;61.97
75838;SHT30;64480;52.040;113.502;2023-02-11T23:28:57;-14.67;61.75
75838;SHT30;64480;52.040;113.502;2023-02-11T23:32:03;-14.74;61.22
75838;SHT30;64480;52.040;113.502;2023-02-11T23:35:08;-14.54;61.40
75838;SHT30;64480;52.040;113.502;2023-02-11T23:38:13;-14.51;60.40
75838;SHT30;64480;52.040;113.502;2023-02-11T23:41:17;-14.81;59.90
75838;SHT30;64480;52.040;113.502;2023-02-11T23:44:26;-14.87;60.91
75838;SHT30;64480;52.040;113.502;2023-02-11T23:47:34;-14.70;61.78
75838;SHT30;64480;52.040;113.502;2023-02-11T23:50:38;-14.43;61.68
75838;SHT30;64480;52.040;113.502;2023-02-11T23:53:43;-14.42;60.36
75838;SHT30;64480;52.040;113.502;2023-02-11T23:56:49;-14.44;60.37
75838;SHT30;64480;52.040;113.502;2023-02-11T23:59:54;-14.50;60.10
